Time,TemperatureF,DewpointF,PressureIn,WindDirection,WindDirectionDegrees,WindSpeedMPH,WindSpeedGustMPH,Humidity,HourlyPrecipIn,Conditions,Clouds,dailyrainin,SoftwareType,DateUTC
2013-06-29 00:13:00,66.9,65.0,29.48,SW,219,0.0,0.0,93,0.00,,,0.02,weatherlink.com 1.10,2013-06-29 04:13:00,
2013-06-29 00:27:00,66.5,65.0,29.48,SW,219,0.0,0.0,94,0.00,,,0.02,weatherlink.com 1.10,2013-06-29 04:27:00,
2013-06-29 00:42:00,66.2,65.0,29.48,SW,219,0.0,0.0,94,0.00,,,0.02,weatherlink.com 1.10,2013-06-29 04:42:00,
2013-06-29 00:57:00,65.8,64.0,29.49,SW,219,0.0,0.0,94,0.00,,,0.02,weatherlink.com 1.10,2013-06-29 04:57:00,
2013-06-29 01:14:00,65.6,64.0,29.49,SW,219,0.0,0.0,95,0.00,,,0.02,weatherlink.com 1.10,2013-06-29 05:14:00,
2013-06-29 01:29:00,65.4,64.0,29.48,SW,219,0.0,0.0,95,0.00,,,0.02,weatherlink.com 1.10,2013-06-29 05:29:00,
2013-06-29 01:44:00,65.4,64.0,29.49,SW,219,0.0,0.0,95,0.00,,,0.02,weatherlink.com 1.10,2013-06-29 05:44:00,
2013-06-29 01:58:00,65.4,64.0,29.49,SW,219,0.0,0.0,96,0.00,,,0.02,weatherlink.com 1.10,2013-06-29 05:58:00,
2013-06-29 02:13:00,65.5,64.0,29.49,SW,219,0.0,0.0,96,0.00,,,0.02,weatherlink.com 1.10,2013-06-29 06:13:00,
2013-06-29 02:28:00,65.5,64.0,29.48,SW,219,0.0,0.0,96,0.00,,,0.02,weatherlink.com 1.10,2013-06-29 06:28:00,
2013-06-29 02:45:00,65.4,64.0,29.48,SW,219,0.0,0.0,96,0.00,,,0.02,weatherlink.com 1.10,2013-06-29 06:45:00,
2013-06-29 02:59:00,65.2,64.0,29.47,SW,219,0.0,0.0,96,0.00,,,0.02,weatherlink.com 1.10,2013-06-29 06:59:00,
2013-06-29 03:14:00,64.9,64.0,29.47,SW,219,0.0,0.0,96,0.00,,,0.02,weatherlink.com 1.10,2013-06-29 07:14:00,
2013-06-29 03:29:00,64.7,64.0,29.48,SW,219,0.0,0.0,96,0.01,,,0.03,weatherlink.com 1.10,2013-06-29 07:29:00,
2013-06-29 03:44:00,64.4,63.0,29.48,SW,219,0.0,0.0,96,0.01,,,0.03,weatherlink.com 1.10,2013-06-29 07:44:00,
2013-06-29 03:59:00,64.1,63.0,29.49,SW,219,0.0,0.0,96,0.01,,,0.03,weatherlink.com 1.10,2013-06-29 07:59:00,
2013-06-29 04:14:00,63.8,63.0,29.49,SW,219,0.0,0.0,96,0.01,,,0.03,weatherlink.com 1.10,2013-06-29 08:14:00,
2013-06-29 04:29:00,63.8,63.0,29.50,SW,219,0.0,0.0,97,0.00,,,0.03,weatherlink.com 1.10,2013-06-29 08:29:00,
2013-06-29 04:44:00,64.2,63.0,29.49,SW,219,0.0,0.0,97,0.00,,,0.03,weatherlink.com 1.10,2013-06-29 08:44:00,
2013-06-29 04:59:00,64.4,64.0,29.50,SW,219,0.0,0.0,97,0.00,,,0.03,weatherlink.com 1.10,2013-06-29 08:59:00,
2013-06-29 05:14:00,64.6,64.0,29.51,SW,219,0.0,0.0,97,0.00,,,0.03,weatherlink.com 1.10,2013-06-29 09:14:00,
2013-06-29 05:29:00,64.7,64.0,29.51,SW,219,0.0,0.0,97,0.00,,,0.03,weatherlink.com 1.10,2013-06-29 09:29:00,
2013-06-29 05:44:00,65.2,65.0,29.52,SW,219,0.0,0.0,98,0.00,,,0.03,weatherlink.com 1.10,2013-06-29 09:44:00,
2013-06-29 05:59:00,65.9,65.0,29.53,SW,219,0.0,0.0,98,0.00,,,0.03,weatherlink.com 1.10,2013-06-29 09:59:00,
2013-06-29 06:14:00,66.4,66.0,29.53,West,263,0.0,0.0,98,0.00,,,0.03,weatherlink.com 1.10,2013-06-29 10:14:00,
2013-06-29 06:29:00,66.6,66.0,29.54,West,263,0.0,2.0,98,0.00,,,0.03,weatherlink.com 1.10,2013-06-29 10:29:00,
2013-06-29 06:44:00,66.7,66.0,29.55,SE,141,0.0,2.0,98,0.00,,,0.03,weatherlink.com 1.10,2013-06-29 10:44:00,
2013-06-29 06:59:00,67.0,67.0,29.55,SE,141,0.0,0.0,98,0.00,,,0.03,weatherlink.com 1.10,2013-06-29 10:59:00,
2013-06-29 07:14:00,67.0,67.0,29.55,WSW,251,0.0,1.0,98,0.00,,,0.03,weatherlink.com 1.10,2013-06-29 11:14:00,
2013-06-29 07:29:00,67.1,67.0,29.55,WSW,251,0.0,0.0,98,0.00,,,0.03,weatherlink.com 1.10,2013-06-29 11:29:00,
2013-06-29 07:44:00,67.2,67.0,29.55,WSW,251,0.0,2.0,98,0.00,,,0.03,weatherlink.com 1.10,2013-06-29 11:44:00,
2013-06-29 07:59:00,67.7,67.0,29.56,WSW,251,0.0,0.0,98,0.00,,,0.03,weatherlink.com 1.10,2013-06-29 11:59:00,
2013-06-29 08:14:00,68.1,68.0,29.57,WSW,251,0.0,0.0,98,0.00,,,0.03,weatherlink.com 1.10,2013-06-29 12:14:00,
2013-06-29 08:29:00,68.9,68.0,29.57,WSW,251,0.0,0.0,98,0.00,,,0.03,weatherlink.com 1.10,2013-06-29 12:29:00,
2013-06-29 08:44:00,70.1,69.0,29.57,West,267,4.0,7.0,96,0.00,,,0.03,weatherlink.com 1.10,2013-06-29 12:44:00,
2013-06-29 08:59:00,71.2,69.0,29.57,SSW,209,0.0,3.0,91,0.00,,,0.03,weatherlink.com 1.10,2013-06-29 12:59:00,
2013-06-29 09:14:00,72.2,68.0,29.57,SSW,199,0.0,6.0,86,0.00,,,0.03,weatherlink.com 1.10,2013-06-29 13:14:00,
2013-06-29 09:29:00,72.9,68.0,29.57,SW,234,0.0,4.0,83,0.00,,,0.03,weatherlink.com 1.10,2013-06-29 13:29:00,
2013-06-29 09:44:00,73.4,67.0,29.57,SSW,198,0.0,5.0,80,0.00,,,0.03,weatherlink.com 1.10,2013-06-29 13:44:00,
2013-06-29 09:59:00,73.9,67.0,29.57,West,279,0.0,5.0,80,0.00,,,0.03,weatherlink.com 1.10,2013-06-29 13:59:00,
2013-06-29 10:14:00,73.4,67.0,29.58,West,281,0.0,5.0,80,0.00,,,0.03,weatherlink.com 1.10,2013-06-29 14:14:00,
2013-06-29 10:29:00,75.3,67.0,29.57,West,280,1.0,6.0,76,0.00,,,0.03,weatherlink.com 1.10,2013-06-29 14:29:00,
2013-06-29 10:44:00,76.0,68.0,29.58,West,271,3.0,4.0,75,0.00,,,0.03,weatherlink.com 1.10,2013-06-29 14:44:00,
2013-06-29 10:59:00,76.5,68.0,29.58,WNW,300,0.0,7.0,76,0.00,,,0.03,weatherlink.com 1.10,2013-06-29 14:59:00,
2013-06-29 11:14:00,77.6,69.0,29.58,WSW,242,5.0,7.0,74,0.00,,,0.03,weatherlink.com 1.10,2013-06-29 15:14:00,
2013-06-29 11:29:00,78.0,68.0,29.58,SSW,192,0.0,6.0,71,0.00,,,0.03,weatherlink.com 1.10,2013-06-29 15:29:00,
2013-06-29 11:44:00,78.2,68.0,29.58,NNW,348,3.0,7.0,72,0.00,,,0.03,weatherlink.com 1.10,2013-06-29 15:44:00,
2013-06-29 11:59:00,77.9,68.0,29.58,WSW,250,0.0,4.0,72,0.00,,,0.03,weatherlink.com 1.10,2013-06-29 15:59:00,
2013-06-29 12:14:00,78.0,67.0,29.58,West,262,0.0,6.0,70,0.00,,,0.03,weatherlink.com 1.10,2013-06-29 16:14:00,
2013-06-29 12:29:00,79.3,68.0,29.58,WNW,300,0.0,6.0,69,0.00,,,0.03,weatherlink.com 1.10,2013-06-29 16:29:00,
2013-06-29 12:44:00,79.6,69.0,29.58,SW,214,1.0,6.0,70,0.00,,,0.03,weatherlink.com 1.10,2013-06-29 16:44:00,
2013-06-29 12:59:00,80.6,68.0,29.57,WSW,252,0.0,7.0,65,0.00,,,0.03,weatherlink.com 1.10,2013-06-29 16:59:00,
2013-06-29 13:14:00,79.3,69.0,29.57,West,265,0.0,5.0,70,0.00,,,0.03,weatherlink.com 1.10,2013-06-29 17:14:00,
2013-06-29 13:29:00,80.4,68.0,29.57,West,281,5.0,6.0,67,0.00,,,0.03,weatherlink.com 1.10,2013-06-29 17:29:00,
2013-06-29 13:44:00,80.9,68.0,29.58,WNW,293,3.0,7.0,65,0.00,,,0.03,weatherlink.com 1.10,2013-06-29 17:44:00,
2013-06-29 13:59:00,80.7,69.0,29.58,South,182,2.0,6.0,68,0.00,,,0.03,weatherlink.com 1.10,2013-06-29 17:59:00,
2013-06-29 14:14:00,81.5,67.0,29.57,SE,127,0.0,7.0,62,0.00,,,0.03,weatherlink.com 1.10,2013-06-29 18:14:00,
2013-06-29 14:29:00,82.1,69.0,29.58,SW,223,0.0,5.0,65,0.00,,,0.03,weatherlink.com 1.10,2013-06-29 18:29:00,
2013-06-29 14:44:00,82.8,68.0,29.58,West,265,0.0,7.0,61,0.00,,,0.03,weatherlink.com 1.10,2013-06-29 18:44:00,
2013-06-29 14:59:00,82.5,67.0,29.58,SSW,213,3.0,14.0,60,0.00,,,0.03,weatherlink.com 1.10,2013-06-29 18:59:00,
2013-06-29 15:14:00,82.9,68.0,29.58,West,273,0.0,8.0,60,0.00,,,0.00,weatherlink.com 1.10,2013-06-29 19:14:00,
2013-06-29 15:29:00,83.6,69.0,29.58,WSW,243,0.0,4.0,61,0.00,,,0.00,weatherlink.com 1.10,2013-06-29 19:29:00,
2013-06-29 15:44:00,83.1,68.0,29.58,West,279,0.0,7.0,60,0.00,,,0.00,weatherlink.com 1.10,2013-06-29 19:44:00,
2013-06-29 15:59:00,82.7,68.0,29.58,WSW,258,1.0,6.0,62,0.00,,,0.00,weatherlink.com 1.10,2013-06-29 19:59:00,
2013-06-29 16:15:00,83.1,68.0,29.59,SW,228,0.0,9.0,60,0.00,,,0.00,weatherlink.com 1.10,2013-06-29 20:15:00,
2013-06-29 16:30:00,83.1,69.0,29.59,WNW,290,0.0,6.0,63,0.00,,,0.00,weatherlink.com 1.10,2013-06-29 20:30:00,
2013-06-29 16:45:00,83.3,68.0,29.59,SE,128,0.0,7.0,61,0.00,,,0.00,weatherlink.com 1.10,2013-06-29 20:45:00,
2013-06-29 17:00:00,84.0,67.0,29.59,SW,219,4.0,6.0,56,0.00,,,0.00,weatherlink.com 1.10,2013-06-29 21:00:00,
2013-06-29 17:15:00,84.1,67.0,29.59,WSW,237,0.0,3.0,57,0.00,,,0.00,weatherlink.com 1.10,2013-06-29 21:15:00,
2013-06-29 17:30:00,84.3,68.0,29.59,SW,215,0.0,7.0,58,0.00,,,0.00,weatherlink.com 1.10,2013-06-29 21:30:00,
2013-06-29 17:45:00,84.0,67.0,29.59,West,277,4.0,9.0,56,0.00,,,0.00,weatherlink.com 1.10,2013-06-29 21:45:00,
2013-06-29 18:00:00,84.1,66.0,29.59,West,265,0.0,7.0,55,0.00,,,0.00,weatherlink.com 1.10,2013-06-29 22:00:00,
2013-06-29 18:15:00,84.5,68.0,29.59,WNW,291,1.0,3.0,58,0.00,,,0.00,weatherlink.com 1.10,2013-06-29 22:15:00,
2013-06-29 18:30:00,84.3,67.0,29.59,West,281,0.0,5.0,56,0.00,,,0.00,weatherlink.com 1.10,2013-06-29 22:30:00,
2013-06-29 18:45:00,83.7,66.0,29.60,WNW,284,0.0,5.0,56,0.00,,,0.00,weatherlink.com 1.10,2013-06-29 22:45:00,
2013-06-29 19:00:00,84.1,67.0,29.60,WNW,284,0.0,1.0,57,0.00,,,0.00,weatherlink.com 1.10,2013-06-29 23:00:00,
2013-06-29 19:15:00,83.7,68.0,29.60,West,272,0.0,2.0,59,0.00,,,0.00,weatherlink.com 1.10,2013-06-29 23:15:00,
2013-06-29 19:30:00,83.7,68.0,29.61,SSW,213,0.0,2.0,60,0.00,,,0.00,weatherlink.com 1.10,2013-06-29 23:30:00,
2013-06-29 19:45:00,83.3,69.0,29.61,SSE,163,0.0,0.0,63,0.00,,,0.00,weatherlink.com 1.10,2013-06-29 23:45:00,
2013-06-29 20:00:00,82.2,70.0,29.62,SSE,163,0.0,0.0,66,0.00,,,0.00,weatherlink.com 1.10,2013-06-30 00:00:00,
2013-06-29 20:15:00,81.2,70.0,29.63,SSE,163,0.0,0.0,69,0.00,,,0.00,weatherlink.com 1.10,2013-06-30 00:15:00,
2013-06-29 20:30:00,79.3,69.0,29.64,SSE,163,0.0,0.0,71,0.00,,,0.00,weatherlink.com 1.10,2013-06-30 00:30:00,
2013-06-29 20:45:00,77.6,69.0,29.64,SSE,163,0.0,0.0,75,0.00,,,0.00,weatherlink.com 1.10,2013-06-30 00:45:00,
2013-06-29 21:00:00,75.0,67.0,29.64,SSE,163,0.0,0.0,77,0.00,,,0.00,weatherlink.com 1.10,2013-06-30 01:00:00,
2013-06-29 21:15:00,73.4,67.0,29.65,SSE,163,0.0,0.0,80,0.00,,,0.00,weatherlink.com 1.10,2013-06-30 01:15:00,
2013-06-29 21:30:00,72.1,67.0,29.66,SSE,163,0.0,0.0,83,0.00,,,0.00,weatherlink.com 1.10,2013-06-30 01:30:00,
2013-06-29 21:46:00,70.7,66.0,29.66,SSE,163,0.0,0.0,84,0.00,,,0.00,weatherlink.com 1.10,2013-06-30 01:46:00,
2013-06-29 22:01:00,69.5,65.0,29.67,SSE,163,0.0,0.0,86,0.00,,,0.00,weatherlink.com 1.10,2013-06-30 02:01:00,
2013-06-29 22:16:00,68.7,65.0,29.67,SSE,163,0.0,0.0,87,0.00,,,0.00,weatherlink.com 1.10,2013-06-30 02:16:00,
2013-06-29 22:31:00,68.1,65.0,29.67,SSE,163,0.0,0.0,88,0.00,,,0.00,weatherlink.com 1.10,2013-06-30 02:31:00,
2013-06-29 22:46:00,67.6,64.0,29.67,SSE,163,0.0,0.0,89,0.00,,,0.00,weatherlink.com 1.10,2013-06-30 02:46:00,
2013-06-29 23:01:00,67.1,64.0,29.67,SSE,163,0.0,0.0,90,0.00,,,0.00,weatherlink.com 1.10,2013-06-30 03:01:00,
2013-06-29 23:16:00,66.6,64.0,29.68,SSE,163,0.0,0.0,90,0.00,,,0.00,weatherlink.com 1.10,2013-06-30 03:16:00,
2013-06-29 23:31:00,66.1,64.0,29.68,SSE,163,0.0,0.0,91,0.00,,,0.00,weatherlink.com 1.10,2013-06-30 03:31:00,
2013-06-29 23:46:00,65.7,63.0,29.68,SSE,163,0.0,0.0,92,0.00,,,0.00,weatherlink.com 1.10,2013-06-30 03:46:00,